KLIC

Limon Municipal Airport

Limon, Colorado, USA
METAR KLIC 160955Z AUTO 00000KT 10SM CLR M06/M10 A2977 RMK AO2 SLP067 T10611100
Observed Flight Rules
Dec-16 @ 09:55 UTC (an hour ago) Visual Flight Rules
Wind Visibility Clouds
Calm 10 miles
  • Clear skies
Temperatures Readings
Current -6°C / 21°F
Dewpoint -10°C / 14°F
Humidity 74%
Altimeter 29.77" Hg
Pressure 1006.7 hPa
Elevation 1630
METAR KLIC 160955Z AUTO 00000KT 10SM CLR M06/M10 A2977 RMK AO2 SLP067 T10611100
Observed Flight Rules
Dec-16 @ 09:55 UTC
(an hour ago)
VFR
Wind Visibility
Calm 10 miles
Clouds
  • Clear skies
Temperature Dewpoint
-6°C / 21°F -10°C / 14°F
Humidity Altimeter Pressure
74% 29.77" Hg 1006.7 hPa